sensor_id;sensor_type;location;lat;lon;timestamp;pressure;altitude;pressure_sealevel;temperature
75822;BMP180;64454;51.984;9.838;2022-12-07T00:01:28;99981.00;;;3.40
75822;BMP180;64454;51.984;9.838;2022-12-07T00:04:00;99983.00;;;3.50
75822;BMP180;64454;51.984;9.838;2022-12-07T00:06:30;99989.00;;;3.40
75822;BMP180;64454;51.984;9.838;2022-12-07T00:08:58;99983.00;;;3.70
75822;BMP180;64454;51.984;9.838;2022-12-07T00:11:25;99983.00;;;3.70
75822;BMP180;64454;51.984;9.838;2022-12-07T00:13:55;99969.00;;;3.80
75822;BMP180;64454;51.984;9.838;2022-12-07T00:16:26;99962.00;;;3.60
75822;BMP180;64454;51.984;9.838;2022-12-07T00:18:54;99968.00;;;3.80
75822;BMP180;64454;51.984;9.838;2022-12-07T00:21:25;99963.00;;;3.60
75822;BMP180;64454;51.984;9.838;2022-12-07T00:23:54;99952.00;;;3.60
75822;BMP180;64454;51.984;9.838;2022-12-07T00:26:24;99955.00;;;3.60
75822;BMP180;64454;51.984;9.838;2022-12-07T00:28:54;99952.00;;;3.50
75822;BMP180;64454;51.984;9.838;2022-12-07T00:31:26;99948.00;;;3.50
75822;BMP180;64454;51.984;9.838;2022-12-07T00:33:54;99950.00;;;4.00
75822;BMP180;64454;51.984;9.838;2022-12-07T00:36:23;99947.00;;;3.80
75822;BMP180;64454;51.984;9.838;2022-12-07T00:38:51;99952.00;;;3.90
75822;BMP180;64454;51.984;9.838;2022-12-07T00:41:21;99948.00;;;4.10
75822;BMP180;64454;51.984;9.838;2022-12-07T00:43:50;99945.00;;;3.80
75822;BMP180;64454;51.984;9.838;2022-12-07T00:46:19;99951.00;;;3.80
75822;BMP180;64454;51.984;9.838;2022-12-07T00:48:49;99957.00;;;4.10
75822;BMP180;64454;51.984;9.838;2022-12-07T00:51:20;99945.00;;;4.00
75822;BMP180;64454;51.984;9.838;2022-12-07T00:53:47;99939.00;;;3.80
75822;BMP180;64454;51.984;9.838;2022-12-07T00:56:17;99934.00;;;3.90
75822;BMP180;64454;51.984;9.838;2022-12-07T00:58:49;99937.00;;;4.10
75822;BMP180;64454;51.984;9.838;2022-12-07T01:01:16;99921.00;;;3.90
75822;BMP180;64454;51.984;9.838;2022-12-07T01:03:43;99919.00;;;3.70
75822;BMP180;64454;51.984;9.838;2022-12-07T01:06:14;99918.00;;;3.90
75822;BMP180;64454;51.984;9.838;2022-12-07T01:08:42;99922.00;;;4.10
75822;BMP180;64454;51.984;9.838;2022-12-07T01:11:13;99913.00;;;4.10
75822;BMP180;64454;51.984;9.838;2022-12-07T01:13:41;99913.00;;;3.90
75822;BMP180;64454;51.984;9.838;2022-12-07T01:16:11;99919.00;;;3.90
75822;BMP180;64454;51.984;9.838;2022-12-07T01:18:38;99923.00;;;3.90
75822;BMP180;64454;51.984;9.838;2022-12-07T01:21:09;99920.00;;;3.80
75822;BMP180;64454;51.984;9.838;2022-12-07T01:23:38;99917.00;;;3.80
75822;BMP180;64454;51.984;9.838;2022-12-07T01:26:09;99916.00;;;3.80
75822;BMP180;64454;51.984;9.838;2022-12-07T01:28:37;99912.00;;;3.80
75822;BMP180;64454;51.984;9.838;2022-12-07T01:31:06;99915.00;;;3.90
75822;BMP180;64454;51.984;9.838;2022-12-07T01:33:37;99914.00;;;3.90
75822;BMP180;64454;51.984;9.838;2022-12-07T01:36:07;99912.00;;;3.90
75822;BMP180;64454;51.984;9.838;2022-12-07T01:38:34;99916.00;;;3.90
75822;BMP180;64454;51.984;9.838;2022-12-07T01:41:03;99912.00;;;3.80
75822;BMP180;64454;51.984;9.838;2022-12-07T01:43:32;99912.00;;;3.70
75822;BMP180;64454;51.984;9.838;2022-12-07T01:46:00;99915.00;;;3.80
75822;BMP180;64454;51.984;9.838;2022-12-07T01:48:31;99913.00;;;3.80
75822;BMP180;64454;51.984;9.838;2022-12-07T01:51:03;99907.00;;;3.90
75822;BMP180;64454;51.984;9.838;2022-12-07T01:53:34;99905.00;;;4.00
75822;BMP180;64454;51.984;9.838;2022-12-07T01:56:07;99904.00;;;4.30
75822;BMP180;64454;51.984;9.838;2022-12-07T01:58:36;99907.00;;;4.30
75822;BMP180;64454;51.984;9.838;2022-12-07T02:01:04;99901.00;;;4.60
75822;BMP180;64454;51.984;9.838;2022-12-07T02:03:36;99893.00;;;4.50
75822;BMP180;64454;51.984;9.838;2022-12-07T02:06:06;99892.00;;;4.40
75822;BMP180;64454;51.984;9.838;2022-12-07T02:08:34;99890.00;;;4.60
75822;BMP180;64454;51.984;9.838;2022-12-07T02:11:04;99890.00;;;4.40
75822;BMP180;64454;51.984;9.838;2022-12-07T02:13:35;99896.00;;;4.40
75822;BMP180;64454;51.984;9.838;2022-12-07T02:16:20;99893.00;;;4.40
75822;BMP180;64454;51.984;9.838;2022-12-07T02:19:09;99890.00;;;4.50
75822;BMP180;64454;51.984;9.838;2022-12-07T02:21:47;99891.00;;;4.60
75822;BMP180;64454;51.984;9.838;2022-12-07T02:24:47;99896.00;;;5.00
75822;BMP180;64454;51.984;9.838;2022-12-07T02:27:40;99879.00;;;4.90
75822;BMP180;64454;51.984;9.838;2022-12-07T02:30:13;99875.00;;;4.80
75822;BMP180;64454;51.984;9.838;2022-12-07T02:32:51;99887.00;;;4.80
75822;BMP180;64454;51.984;9.838;2022-12-07T02:35:24;99880.00;;;4.60
75822;BMP180;64454;51.984;9.838;2022-12-07T02:38:06;99890.00;;;4.80
75822;BMP180;64454;51.984;9.838;2022-12-07T02:40:41;99877.00;;;4.80
75822;BMP180;64454;51.984;9.838;2022-12-07T02:43:18;99874.00;;;4.70
75822;BMP180;64454;51.984;9.838;2022-12-07T02:45:50;99881.00;;;4.80
75822;BMP180;64454;51.984;9.838;2022-12-07T02:48:20;99875.00;;;4.70
75822;BMP180;64454;51.984;9.838;2022-12-07T02:50:49;99873.00;;;4.70
75822;BMP180;64454;51.984;9.838;2022-12-07T02:53:31;99865.00;;;4.80
75822;BMP180;64454;51.984;9.838;2022-12-07T02:56:02;99866.00;;;4.90
75822;BMP180;64454;51.984;9.838;2022-12-07T02:58:45;99866.00;;;4.80
75822;BMP180;64454;51.984;9.838;2022-12-07T03:01:28;99865.00;;;4.70
75822;BMP180;64454;51.984;9.838;2022-12-07T03:04:10;99862.00;;;4.80
75822;BMP180;64454;51.984;9.838;2022-12-07T03:06:48;99867.00;;;4.70
75822;BMP180;64454;51.984;9.838;2022-12-07T03:09:26;99861.00;;;4.90
75822;BMP180;64454;51.984;9.838;2022-12-07T03:12:06;99854.00;;;4.90
75822;BMP180;64454;51.984;9.838;2022-12-07T03:14:40;99861.00;;;5.00
75822;BMP180;64454;51.984;9.838;2022-12-07T03:17:16;99862.00;;;4.80
75822;BMP180;64454;51.984;9.838;2022-12-07T03:19:46;99864.00;;;4.80
75822;BMP180;64454;51.984;9.838;2022-12-07T03:22:17;99860.00;;;4.80
75822;BMP180;64454;51.984;9.838;2022-12-07T03:24:50;99856.00;;;4.80
75822;BMP180;64454;51.984;9.838;2022-12-07T03:27:23;99858.00;;;4.80
75822;BMP180;64454;51.984;9.838;2022-12-07T03:29:58;99843.00;;;4.90
75822;BMP180;64454;51.984;9.838;2022-12-07T03:32:34;99843.00;;;4.60
75822;BMP180;64454;51.984;9.838;2022-12-07T03:35:10;99844.00;;;4.70
75822;BMP180;64454;51.984;9.838;2022-12-07T03:37:45;99849.00;;;4.70
75822;BMP180;64454;51.984;9.838;2022-12-07T03:40:20;99843.00;;;4.70
75822;BMP180;64454;51.984;9.838;2022-12-07T03:42:50;99849.00;;;4.70
75822;BMP180;64454;51.984;9.838;2022-12-07T03:45:18;99853.00;;;4.50
75822;BMP180;64454;51.984;9.838;2022-12-07T03:47:57;99851.00;;;4.80
75822;BMP180;64454;51.984;9.838;2022-12-07T03:50:33;99837.00;;;4.50
75822;BMP180;64454;51.984;9.838;2022-12-07T03:53:13;99839.00;;;4.60
75822;BMP180;64454;51.984;9.838;2022-12-07T03:55:44;99840.00;;;4.50
75822;BMP180;64454;51.984;9.838;2022-12-07T03:58:16;99847.00;;;4.40
75822;BMP180;64454;51.984;9.838;2022-12-07T04:00:46;99839.00;;;4.40
75822;BMP180;64454;51.984;9.838;2022-12-07T04:03:15;99837.00;;;4.60
75822;BMP180;64454;51.984;9.838;2022-12-07T04:05:42;99843.00;;;4.40
75822;BMP180;64454;51.984;9.838;2022-12-07T04:08:10;99843.00;;;4.40
75822;BMP180;64454;51.984;9.838;2022-12-07T04:10:36;99855.00;;;4.70
75822;BMP180;64454;51.984;9.838;2022-12-07T04:13:03;99846.00;;;4.60
75822;BMP180;64454;51.984;9.838;2022-12-07T04:15:30;99840.00;;;4.40
75822;BMP180;64454;51.984;9.838;2022-12-07T04:17:57;99844.00;;;4.40
75822;BMP180;64454;51.984;9.838;2022-12-07T04:20:26;99845.00;;;4.30
75822;BMP180;64454;51.984;9.838;2022-12-07T04:22:52;99850.00;;;4.50
75822;BMP180;64454;51.984;9.838;2022-12-07T04:25:19;99847.00;;;4.60
75822;BMP180;64454;51.984;9.838;2022-12-07T04:27:46;99844.00;;;4.70
75822;BMP180;64454;51.984;9.838;2022-12-07T04:30:13;99850.00;;;4.60
75822;BMP180;64454;51.984;9.838;2022-12-07T04:32:40;99848.00;;;4.70
75822;BMP180;64454;51.984;9.838;2022-12-07T04:35:08;99849.00;;;5.00
75822;BMP180;64454;51.984;9.838;2022-12-07T04:37:36;99854.00;;;4.70
75822;BMP180;64454;51.984;9.838;2022-12-07T04:40:07;99844.00;;;4.60
75822;BMP180;64454;51.984;9.838;2022-12-07T04:42:36;99841.00;;;5.10
75822;BMP180;64454;51.984;9.838;2022-12-07T04:45:05;99850.00;;;4.90
75822;BMP180;64454;51.984;9.838;2022-12-07T04:47:32;99841.00;;;4.90
75822;BMP180;64454;51.984;9.838;2022-12-07T04:49:59;99849.00;;;5.10
75822;BMP180;64454;51.984;9.838;2022-12-07T04:52:25;99835.00;;;4.90
75822;BMP180;64454;51.984;9.838;2022-12-07T04:54:54;99849.00;;;5.00
75822;BMP180;64454;51.984;9.838;2022-12-07T04:57:21;99836.00;;;4.90
75822;BMP180;64454;51.984;9.838;2022-12-07T04:59:47;99842.00;;;4.80
75822;BMP180;64454;51.984;9.838;2022-12-07T05:02:14;99835.00;;;4.90
75822;BMP180;64454;51.984;9.838;2022-12-07T05:04:41;99839.00;;;5.00
75822;BMP180;64454;51.984;9.838;2022-12-07T05:07:08;99836.00;;;4.90
75822;BMP180;64454;51.984;9.838;2022-12-07T05:09:35;99829.00;;;4.80
75822;BMP180;64454;51.984;9.838;2022-12-07T05:12:03;99829.00;;;4.90
75822;BMP180;64454;51.984;9.838;2022-12-07T05:14:30;99837.00;;;4.80
75822;BMP180;64454;51.984;9.838;2022-12-07T05:16:57;99834.00;;;4.80
75822;BMP180;64454;51.984;9.838;2022-12-07T05:19:24;99838.00;;;4.80
75822;BMP180;64454;51.984;9.838;2022-12-07T05:21:52;99835.00;;;5.10
75822;BMP180;64454;51.984;9.838;2022-12-07T05:24:19;99836.00;;;4.80
75822;BMP180;64454;51.984;9.838;2022-12-07T05:26:46;99838.00;;;5.00
75822;BMP180;64454;51.984;9.838;2022-12-07T05:29:16;99836.00;;;5.10
75822;BMP180;64454;51.984;9.838;2022-12-07T05:31:44;99833.00;;;5.10
75822;BMP180;64454;51.984;9.838;2022-12-07T05:34:12;99829.00;;;5.00
75822;BMP180;64454;51.984;9.838;2022-12-07T05:36:39;99825.00;;;4.90
75822;BMP180;64454;51.984;9.838;2022-12-07T05:39:07;99826.00;;;5.10
75822;BMP180;64454;51.984;9.838;2022-12-07T05:41:34;99832.00;;;5.20
75822;BMP180;64454;51.984;9.838;2022-12-07T05:44:20;99820.00;;;5.10
75822;BMP180;64454;51.984;9.838;2022-12-07T05:46:47;99832.00;;;5.20
75822;BMP180;64454;51.984;9.838;2022-12-07T05:49:14;99826.00;;;5.00
75822;BMP180;64454;51.984;9.838;2022-12-07T05:51:41;99823.00;;;5.00
75822;BMP180;64454;51.984;9.838;2022-12-07T05:54:08;99822.00;;;5.10
75822;BMP180;64454;51.984;9.838;2022-12-07T05:56:35;99823.00;;;5.00
75822;BMP180;64454;51.984;9.838;2022-12-07T05:59:02;99819.00;;;5.10
75822;BMP180;64454;51.984;9.838;2022-12-07T06:01:48;99813.00;;;5.00
75822;BMP180;64454;51.984;9.838;2022-12-07T06:04:15;99822.00;;;5.10
75822;BMP180;64454;51.984;9.838;2022-12-07T06:06:42;99819.00;;;5.00
75822;BMP180;64454;51.984;9.838;2022-12-07T06:09:09;99818.00;;;4.90
75822;BMP180;64454;51.984;9.838;2022-12-07T06:11:36;99821.00;;;5.00
75822;BMP180;64454;51.984;9.838;2022-12-07T06:14:21;99811.00;;;4.90
75822;BMP180;64454;51.984;9.838;2022-12-07T06:16:49;99813.00;;;5.10
75822;BMP180;64454;51.984;9.838;2022-12-07T06:19:16;99819.00;;;5.10
75822;BMP180;64454;51.984;9.838;2022-12-07T06:21:43;99819.00;;;5.30
75822;BMP180;64454;51.984;9.838;2022-12-07T06:24:11;99817.00;;;5.10
75822;BMP180;64454;51.984;9.838;2022-12-07T06:26:39;99827.00;;;4.90
75822;BMP180;64454;51.984;9.838;2022-12-07T06:29:07;99827.00;;;5.00
75822;BMP180;64454;51.984;9.838;2022-12-07T06:31:35;99826.00;;;5.20
75822;BMP180;64454;51.984;9.838;2022-12-07T06:34:05;99821.00;;;5.00
75822;BMP180;64454;51.984;9.838;2022-12-07T06:36:33;99829.00;;;5.00
75822;BMP180;64454;51.984;9.838;2022-12-07T06:39:00;99827.00;;;4.90
75822;BMP180;64454;51.984;9.838;2022-12-07T06:41:27;99829.00;;;5.00
75822;BMP180;64454;51.984;9.838;2022-12-07T06:43:54;99825.00;;;5.00
75822;BMP180;64454;51.984;9.838;2022-12-07T06:46:22;99829.00;;;5.10
75822;BMP180;64454;51.984;9.838;2022-12-07T06:48:49;99824.00;;;5.30
75822;BMP180;64454;51.984;9.838;2022-12-07T06:51:18;99820.00;;;5.30
75822;BMP180;64454;51.984;9.838;2022-12-07T06:53:44;99836.00;;;5.30
75822;BMP180;64454;51.984;9.838;2022-12-07T06:56:11;99826.00;;;5.10
75822;BMP180;64454;51.984;9.838;2022-12-07T06:58:39;99824.00;;;5.10
75822;BMP180;64454;51.984;9.838;2022-12-07T07:01:10;99825.00;;;5.20
75822;BMP180;64454;51.984;9.838;2022-12-07T07:03:38;99821.00;;;5.00
75822;BMP180;64454;51.984;9.838;2022-12-07T07:06:06;99825.00;;;5.10
75822;BMP180;64454;51.984;9.838;2022-12-07T07:08:35;99820.00;;;5.10
75822;BMP180;64454;51.984;9.838;2022-12-07T07:11:03;99822.00;;;4.90
75822;BMP180;64454;51.984;9.838;2022-12-07T07:13:30;99824.00;;;5.10
75822;BMP180;64454;51.984;9.838;2022-12-07T07:15:57;99823.00;;;5.00
75822;BMP180;64454;51.984;9.838;2022-12-07T07:18:25;99832.00;;;4.90
75822;BMP180;64454;51.984;9.838;2022-12-07T07:20:52;99829.00;;;5.10
75822;BMP180;64454;51.984;9.838;2022-12-07T07:23:20;99833.00;;;4.90
75822;BMP180;64454;51.984;9.838;2022-12-07T07:25:49;99841.00;;;5.30
75822;BMP180;64454;51.984;9.838;2022-12-07T07:28:16;99836.00;;;5.20
75822;BMP180;64454;51.984;9.838;2022-12-07T07:30:44;99841.00;;;5.00
75822;BMP180;64454;51.984;9.838;2022-12-07T07:33:12;99842.00;;;5.20
75822;BMP180;64454;51.984;9.838;2022-12-07T07:35:39;99842.00;;;5.10
75822;BMP180;64454;51.984;9.838;2022-12-07T07:38:07;99848.00;;;4.90
75822;BMP180;64454;51.984;9.838;2022-12-07T07:40:34;99842.00;;;4.90
75822;BMP180;64454;51.984;9.838;2022-12-07T07:43:03;99850.00;;;4.70
75822;BMP180;64454;51.984;9.838;2022-12-07T07:45:29;99844.00;;;5.00
75822;BMP180;64454;51.984;9.838;2022-12-07T07:47:56;99849.00;;;5.00
75822;BMP180;64454;51.984;9.838;2022-12-07T07:50:23;99855.00;;;5.00
75822;BMP180;64454;51.984;9.838;2022-12-07T07:52:51;99850.00;;;5.00
75822;BMP180;64454;51.984;9.838;2022-12-07T07:55:18;99851.00;;;4.90
75822;BMP180;64454;51.984;9.838;2022-12-07T07:57:45;99852.00;;;4.80
75822;BMP180;64454;51.984;9.838;2022-12-07T08:00:15;99855.00;;;4.90
75822;BMP180;64454;51.984;9.838;2022-12-07T08:02:43;99857.00;;;5.10
75822;BMP180;64454;51.984;9.838;2022-12-07T08:05:11;99857.00;;;5.30
75822;BMP180;64454;51.984;9.838;2022-12-07T08:07:39;99854.00;;;5.20
75822;BMP180;64454;51.984;9.838;2022-12-07T08:10:08;99851.00;;;4.90
75822;BMP180;64454;51.984;9.838;2022-12-07T08:12:37;99858.00;;;5.10
75822;BMP180;64454;51.984;9.838;2022-12-07T08:15:27;99851.00;;;5.20
75822;BMP180;64454;51.984;9.838;2022-12-07T08:17:54;99855.00;;;5.40
75822;BMP180;64454;51.984;9.838;2022-12-07T08:20:22;99861.00;;;5.40
75822;BMP180;64454;51.984;9.838;2022-12-07T08:22:49;99859.00;;;5.30
75822;BMP180;64454;51.984;9.838;2022-12-07T08:25:16;99861.00;;;5.30
75822;BMP180;64454;51.984;9.838;2022-12-07T08:27:43;99853.00;;;5.30
75822;BMP180;64454;51.984;9.838;2022-12-07T08:30:10;99858.00;;;5.20
75822;BMP180;64454;51.984;9.838;2022-12-07T08:32:39;99846.00;;;5.40
75822;BMP180;64454;51.984;9.838;2022-12-07T08:35:07;99853.00;;;5.20
75822;BMP180;64454;51.984;9.838;2022-12-07T08:37:35;99853.00;;;5.40
75822;BMP180;64454;51.984;9.838;2022-12-07T08:40:03;99856.00;;;5.20
75822;BMP180;64454;51.984;9.838;2022-12-07T08:42:30;99853.00;;;5.20
75822;BMP180;64454;51.984;9.838;2022-12-07T08:45:05;99864.00;;;5.30
75822;BMP180;64454;51.984;9.838;2022-12-07T08:47:32;99854.00;;;5.20
75822;BMP180;64454;51.984;9.838;2022-12-07T08:50:04;99860.00;;;5.30
75822;BMP180;64454;51.984;9.838;2022-12-07T08:52:33;99856.00;;;5.30
75822;BMP180;64454;51.984;9.838;2022-12-07T08:55:03;99868.00;;;5.50
75822;BMP180;64454;51.984;9.838;2022-12-07T08:57:34;99854.00;;;5.60
75822;BMP180;64454;51.984;9.838;2022-12-07T09:00:03;99853.00;;;5.80
75822;BMP180;64454;51.984;9.838;2022-12-07T09:02:31;99857.00;;;5.80
75822;BMP180;64454;51.984;9.838;2022-12-07T09:04:58;99865.00;;;5.60
75822;BMP180;64454;51.984;9.838;2022-12-07T09:07:27;99854.00;;;5.40
75822;BMP180;64454;51.984;9.838;2022-12-07T09:09:54;99862.00;;;5.50
75822;BMP180;64454;51.984;9.838;2022-12-07T09:12:21;99864.00;;;5.60
75822;BMP180;64454;51.984;9.838;2022-12-07T09:14:48;99873.00;;;5.40
75822;BMP180;64454;51.984;9.838;2022-12-07T09:17:15;99867.00;;;5.40
75822;BMP180;64454;51.984;9.838;2022-12-07T09:19:42;99864.00;;;5.60
75822;BMP180;64454;51.984;9.838;2022-12-07T09:22:09;99877.00;;;5.40
75822;BMP180;64454;51.984;9.838;2022-12-07T09:24:37;99881.00;;;5.50
75822;BMP180;64454;51.984;9.838;2022-12-07T09:27:04;99871.00;;;5.50
75822;BMP180;64454;51.984;9.838;2022-12-07T09:29:31;99869.00;;;5.40
75822;BMP180;64454;51.984;9.838;2022-12-07T09:31:59;99878.00;;;5.50
75822;BMP180;64454;51.984;9.838;2022-12-07T09:34:25;99882.00;;;5.50
75822;BMP180;64454;51.984;9.838;2022-12-07T09:36:53;99876.00;;;5.60
75822;BMP180;64454;51.984;9.838;2022-12-07T09:39:20;99879.00;;;5.40
75822;BMP180;64454;51.984;9.838;2022-12-07T09:41:48;99864.00;;;5.60
75822;BMP180;64454;51.984;9.838;2022-12-07T09:44:22;99879.00;;;5.60
75822;BMP180;64454;51.984;9.838;2022-12-07T09:46:50;99874.00;;;5.40
75822;BMP180;64454;51.984;9.838;2022-12-07T09:49:21;99879.00;;;5.20
75822;BMP180;64454;51.984;9.838;2022-12-07T09:52:01;99875.00;;;5.30
75822;BMP180;64454;51.984;9.838;2022-12-07T09:54:29;99876.00;;;5.50
75822;BMP180;64454;51.984;9.838;2022-12-07T09:56:59;99872.00;;;5.50
75822;BMP180;64454;51.984;9.838;2022-12-07T09:59:26;99864.00;;;5.60
75822;BMP180;64454;51.984;9.838;2022-12-07T10:01:53;99864.00;;;5.50
75822;BMP180;64454;51.984;9.838;2022-12-07T10:04:24;99865.00;;;5.40
75822;BMP180;64454;51.984;9.838;2022-12-07T10:06:52;99874.00;;;5.30
75822;BMP180;64454;51.984;9.838;2022-12-07T10:09:21;99878.00;;;5.40
75822;BMP180;64454;51.984;9.838;2022-12-07T10:12:06;99864.00;;;5.60
75822;BMP180;64454;51.984;9.838;2022-12-07T10:14:37;99875.00;;;5.30
75822;BMP180;64454;51.984;9.838;2022-12-07T10:17:31;99875.00;;;5.50
75822;BMP180;64454;51.984;9.838;2022-12-07T10:20:22;99868.00;;;5.50
75822;BMP180;64454;51.984;9.838;2022-12-07T10:22:59;99881.00;;;5.20
75822;BMP180;64454;51.984;9.838;2022-12-07T10:25:30;99877.00;;;5.20
75822;BMP180;64454;51.984;9.838;2022-12-07T10:28:08;99870.00;;;5.10
75822;BMP180;64454;51.984;9.838;2022-12-07T10:30:50;99863.00;;;5.20
75822;BMP180;64454;51.984;9.838;2022-12-07T10:33:35;99867.00;;;5.00
75822;BMP180;64454;51.984;9.838;2022-12-07T10:36:19;99865.00;;;5.20
75822;BMP180;64454;51.984;9.838;2022-12-07T10:38:49;99863.00;;;5.30
75822;BMP180;64454;51.984;9.838;2022-12-07T10:41:16;99863.00;;;5.40
75822;BMP180;64454;51.984;9.838;2022-12-07T10:43:52;99867.00;;;5.30
75822;BMP180;64454;51.984;9.838;2022-12-07T10:46:57;99864.00;;;5.00
75822;BMP180;64454;51.984;9.838;2022-12-07T10:53:10;99862.00;;;5.10
75822;BMP180;64454;51.984;9.838;2022-12-07T10:56:00;99858.00;;;5.20
75822;BMP180;64454;51.984;9.838;2022-12-07T10:58:47;99860.00;;;5.30
75822;BMP180;64454;51.984;9.838;2022-12-07T11:01:29;99853.00;;;5.20
75822;BMP180;64454;51.984;9.838;2022-12-07T11:04:29;99847.00;;;5.40
75822;BMP180;64454;51.984;9.838;2022-12-07T11:07:06;99844.00;;;5.50
75822;BMP180;64454;51.984;9.838;2022-12-07T11:10:01;99842.00;;;5.50
75822;BMP180;64454;51.984;9.838;2022-12-07T11:12:46;99843.00;;;5.70
75822;BMP180;64454;51.984;9.838;2022-12-07T11:15:21;99841.00;;;5.90
75822;BMP180;64454;51.984;9.838;2022-12-07T11:18:01;99857.00;;;5.50
75822;BMP180;64454;51.984;9.838;2022-12-07T11:20:42;99844.00;;;5.70
75822;BMP180;64454;51.984;9.838;2022-12-07T11:23:22;99833.00;;;5.80
75822;BMP180;64454;51.984;9.838;2022-12-07T11:26:03;99840.00;;;6.00
75822;BMP180;64454;51.984;9.838;2022-12-07T11:28:56;99832.00;;;6.10
75822;BMP180;64454;51.984;9.838;2022-12-07T11:31:48;99836.00;;;5.70
75822;BMP180;64454;51.984;9.838;2022-12-07T11:34:31;99824.00;;;5.50
75822;BMP180;64454;51.984;9.838;2022-12-07T11:37:03;99819.00;;;5.70
75822;BMP180;64454;51.984;9.838;2022-12-07T11:39:40;99823.00;;;5.60
75822;BMP180;64454;51.984;9.838;2022-12-07T11:42:15;99825.00;;;5.50
75822;BMP180;64454;51.984;9.838;2022-12-07T11:44:51;99813.00;;;5.70
75822;BMP180;64454;51.984;9.838;2022-12-07T11:47:27;99809.00;;;6.10
75822;BMP180;64454;51.984;9.838;2022-12-07T11:50:09;99801.00;;;6.70
75822;BMP180;64454;51.984;9.838;2022-12-07T11:52:48;99789.00;;;6.90
75822;BMP180;64454;51.984;9.838;2022-12-07T11:55:24;99786.00;;;8.10
75822;BMP180;64454;51.984;9.838;2022-12-07T11:58:01;99802.00;;;7.60
75822;BMP180;64454;51.984;9.838;2022-12-07T12:00:29;99804.00;;;6.90
75822;BMP180;64454;51.984;9.838;2022-12-07T12:03:04;99796.00;;;7.00
75822;BMP180;64454;51.984;9.838;2022-12-07T12:05:34;99791.00;;;7.00
75822;BMP180;64454;51.984;9.838;2022-12-07T12:08:13;99778.00;;;6.80
75822;BMP180;64454;51.984;9.838;2022-12-07T12:10:55;99777.00;;;7.00
75822;BMP180;64454;51.984;9.838;2022-12-07T12:13:49;99781.00;;;7.00
75822;BMP180;64454;51.984;9.838;2022-12-07T12:17:07;99788.00;;;6.70
75822;BMP180;64454;51.984;9.838;2022-12-07T12:19:42;99788.00;;;6.90
75822;BMP180;64454;51.984;9.838;2022-12-07T12:22:18;99782.00;;;6.90
75822;BMP180;64454;51.984;9.838;2022-12-07T12:24:51;99775.00;;;6.60
75822;BMP180;64454;51.984;9.838;2022-12-07T12:27:24;99785.00;;;6.60
75822;BMP180;64454;51.984;9.838;2022-12-07T12:29:55;99787.00;;;6.30
75822;BMP180;64454;51.984;9.838;2022-12-07T12:32:36;99788.00;;;6.20
75822;BMP180;64454;51.984;9.838;2022-12-07T12:35:22;99787.00;;;5.90
75822;BMP180;64454;51.984;9.838;2022-12-07T12:37:56;99782.00;;;6.00
75822;BMP180;64454;51.984;9.838;2022-12-07T12:40:44;99780.00;;;5.70
75822;BMP180;64454;51.984;9.838;2022-12-07T12:43:47;99773.00;;;5.50
75822;BMP180;64454;51.984;9.838;2022-12-07T12:46:46;99770.00;;;5.70
75822;BMP180;64454;51.984;9.838;2022-12-07T12:52:57;99769.00;;;5.80
75822;BMP180;64454;51.984;9.838;2022-12-07T12:56:03;99773.00;;;5.60
75822;BMP180;64454;51.984;9.838;2022-12-07T12:58:47;99768.00;;;5.70
75822;BMP180;64454;51.984;9.838;2022-12-07T13:01:42;99762.00;;;5.70
75822;BMP180;64454;51.984;9.838;2022-12-07T13:04:59;99759.00;;;5.80
75822;BMP180;64454;51.984;9.838;2022-12-07T13:07:58;99753.00;;;6.10
75822;BMP180;64454;51.984;9.838;2022-12-07T13:10:42;99752.00;;;6.30
75822;BMP180;64454;51.984;9.838;2022-12-07T13:13:34;99750.00;;;6.40
75822;BMP180;64454;51.984;9.838;2022-12-07T13:16:40;99753.00;;;6.30
75822;BMP180;64454;51.984;9.838;2022-12-07T13:19:56;99754.00;;;6.10
75822;BMP180;64454;51.984;9.838;2022-12-07T13:22:50;99753.00;;;6.30
75822;BMP180;64454;51.984;9.838;2022-12-07T13:25:30;99751.00;;;6.30
75822;BMP180;64454;51.984;9.838;2022-12-07T13:28:07;99747.00;;;6.70
75822;BMP180;64454;51.984;9.838;2022-12-07T13:30:45;99736.00;;;6.90
75822;BMP180;64454;51.984;9.838;2022-12-07T13:33:17;99743.00;;;6.90
75822;BMP180;64454;51.984;9.838;2022-12-07T13:35:45;99756.00;;;7.00
75822;BMP180;64454;51.984;9.838;2022-12-07T13:38:27;99751.00;;;6.60
75822;BMP180;64454;51.984;9.838;2022-12-07T13:41:14;99748.00;;;6.50
75822;BMP180;64454;51.984;9.838;2022-12-07T13:43:50;99741.00;;;6.30
75822;BMP180;64454;51.984;9.838;2022-12-07T13:46:24;99735.00;;;6.40
75822;BMP180;64454;51.984;9.838;2022-12-07T13:48:53;99744.00;;;6.60
75822;BMP180;64454;51.984;9.838;2022-12-07T13:51:24;99734.00;;;6.30
75822;BMP180;64454;51.984;9.838;2022-12-07T13:53:54;99746.00;;;6.80
75822;BMP180;64454;51.984;9.838;2022-12-07T13:56:34;99739.00;;;6.50
75822;BMP180;64454;51.984;9.838;2022-12-07T13:59:02;99731.00;;;6.60
75822;BMP180;64454;51.984;9.838;2022-12-07T14:01:31;99727.00;;;6.70
75822;BMP180;64454;51.984;9.838;2022-12-07T14:04:29;99726.00;;;6.60
75822;BMP180;64454;51.984;9.838;2022-12-07T14:06:57;99731.00;;;6.70
75822;BMP180;64454;51.984;9.838;2022-12-07T14:09:27;99729.00;;;6.50
75822;BMP180;64454;51.984;9.838;2022-12-07T14:11:57;99737.00;;;6.40
75822;BMP180;64454;51.984;9.838;2022-12-07T14:14:28;99730.00;;;6.10
75822;BMP180;64454;51.984;9.838;2022-12-07T14:17:02;99726.00;;;6.30
75822;BMP180;64454;51.984;9.838;2022-12-07T14:19:49;99725.00;;;6.10
75822;BMP180;64454;51.984;9.838;2022-12-07T14:22:25;99725.00;;;6.20
75822;BMP180;64454;51.984;9.838;2022-12-07T14:25:20;99729.00;;;6.00
75822;BMP180;64454;51.984;9.838;2022-12-07T14:27:52;99722.00;;;5.90
75822;BMP180;64454;51.984;9.838;2022-12-07T14:30:23;99728.00;;;6.00
75822;BMP180;64454;51.984;9.838;2022-12-07T14:32:54;99728.00;;;5.90
75822;BMP180;64454;51.984;9.838;2022-12-07T14:35:23;99732.00;;;5.90
75822;BMP180;64454;51.984;9.838;2022-12-07T14:37:50;99738.00;;;5.90
75822;BMP180;64454;51.984;9.838;2022-12-07T14:40:21;99728.00;;;5.90
75822;BMP180;64454;51.984;9.838;2022-12-07T14:42:53;99734.00;;;5.90
75822;BMP180;64454;51.984;9.838;2022-12-07T14:45:23;99734.00;;;5.80
75822;BMP180;64454;51.984;9.838;2022-12-07T14:47:50;99735.00;;;5.70
75822;BMP180;64454;51.984;9.838;2022-12-07T14:50:19;99726.00;;;5.80
75822;BMP180;64454;51.984;9.838;2022-12-07T14:52:51;99731.00;;;5.60
75822;BMP180;64454;51.984;9.838;2022-12-07T14:55:24;99737.00;;;5.60
75822;BMP180;64454;51.984;9.838;2022-12-07T14:57:53;99735.00;;;5.70
75822;BMP180;64454;51.984;9.838;2022-12-07T15:00:23;99720.00;;;5.50
75822;BMP180;64454;51.984;9.838;2022-12-07T15:02:52;99729.00;;;5.60